JIA5617 KCLT-KPNS
Flight info
| Callsign | JIA5617 |
|---|---|
| Flight time | N/A |
| Altitude | 34000 |
| Route | ESTRR5 IPTAY CHOPZ DARED CEW PENSI |
| Aircraft | CRJ9/M-SDFGIRWY/S |
Departure
| Time | N/A |
|---|---|
| Airport | Charlotte Douglas International Airport (KCLT) |
Arrival
| Time | 2026-04-27 01:05 |
|---|---|
| Airport | Pensacola International Airport (KPNS) |
| Time | Latitude | Longitude | Altitude | Speed | Heading |
|---|---|---|---|---|---|
| 2026-04-27 00:02 | 34.80226 | -82.03777 | 27109 ft | 418 kts | 241° |
| 2026-04-27 00:02 | 34.78591 | -82.06697 | 27584 ft | 417 kts | 241° |
| 2026-04-27 00:02 | 34.76961 | -82.09606 | 28126 ft | 415 kts | 242° |
| 2026-04-27 00:02 | 34.75341 | -82.12498 | 28646 ft | 413 kts | 242° |
| 2026-04-27 00:03 | 34.73730 | -82.15371 | 29178 ft | 410 kts | 242° |
| 2026-04-27 00:03 | 34.72124 | -82.18229 | 29713 ft | 407 kts | 242° |
| 2026-04-27 00:03 | 34.70534 | -82.21061 | 30237 ft | 404 kts | 242° |
| 2026-04-27 00:03 | 34.68956 | -82.23864 | 30707 ft | 400 kts | 242° |
| 2026-04-27 00:04 | 34.67393 | -82.26642 | 31182 ft | 397 kts | 243° |
| 2026-04-27 00:04 | 34.65843 | -82.29392 | 31668 ft | 392 kts | 243° |
| 2026-04-27 00:04 | 34.64308 | -82.32113 | 32159 ft | 388 kts | 243° |
| 2026-04-27 00:04 | 34.62797 | -82.34794 | 32661 ft | 382 kts | 243° |
| 2026-04-27 00:05 | 34.61321 | -82.37434 | 33165 ft | 373 kts | 243° |
| 2026-04-27 00:05 | 34.59876 | -82.39992 | 33624 ft | 364 kts | 244° |
| 2026-04-27 00:05 | 34.58450 | -82.42519 | 33802 ft | 363 kts | 243° |
| 2026-04-27 00:05 | 34.57036 | -82.45021 | 33801 ft | 367 kts | 243° |
| 2026-04-27 00:06 | 34.54122 | -82.50162 | 33801 ft | 373 kts | 243° |
| 2026-04-27 00:06 | 34.51159 | -82.55387 | 33825 ft | 379 kts | 243° |
| 2026-04-27 00:07 | 34.48157 | -82.60670 | 33917 ft | 382 kts | 243° |
| 2026-04-27 00:07 | 34.45138 | -82.65981 | 34014 ft | 385 kts | 243° |
| 2026-04-27 00:08 | 34.42090 | -82.71328 | 34024 ft | 391 kts | 242° |
| 2026-04-27 00:08 | 34.38971 | -82.76770 | 34020 ft | 396 kts | 242° |
| 2026-04-27 00:09 | 34.35816 | -82.82291 | 34006 ft | 401 kts | 242° |
| 2026-04-27 00:09 | 34.32618 | -82.87871 | 34002 ft | 406 kts | 242° |
| 2026-04-27 00:10 | 34.29379 | -82.93507 | 33997 ft | 410 kts | 242° |
| 2026-04-27 00:10 | 34.26098 | -82.99207 | 33994 ft | 415 kts | 242° |
| 2026-04-27 00:11 | 34.22790 | -83.04948 | 33992 ft | 419 kts | 242° |
| 2026-04-27 00:11 | 34.19466 | -83.10706 | 33985 ft | 422 kts | 242° |
| 2026-04-27 00:12 | 34.16096 | -83.16544 | 33985 ft | 425 kts | 242° |
| 2026-04-27 00:12 | 34.12697 | -83.22404 | 33985 ft | 428 kts | 241° |
| 2026-04-27 00:13 | 34.09275 | -83.28306 | 33986 ft | 430 kts | 241° |
| 2026-04-27 00:13 | 34.05833 | -83.34234 | 33994 ft | 432 kts | 241° |
| 2026-04-27 00:14 | 34.02375 | -83.40179 | 33996 ft | 434 kts | 241° |
| 2026-04-27 00:14 | 33.98897 | -83.46142 | 33995 ft | 436 kts | 241° |
| 2026-04-27 00:15 | 33.95431 | -83.52086 | 34012 ft | 437 kts | 241° |
| 2026-04-27 00:15 | 33.91928 | -83.58072 | 34009 ft | 439 kts | 241° |
| 2026-04-27 00:16 | 33.88403 | -83.64088 | 34019 ft | 440 kts | 241° |
| 2026-04-27 00:16 | 33.84233 | -83.69577 | 34022 ft | 453 kts | 227° |
| 2026-04-27 00:17 | 33.80087 | -83.73464 | 34000 ft | 460 kts | 220° |
| 2026-04-27 00:17 | 33.74630 | -83.77565 | 33978 ft | 463 kts | 218° |
| 2026-04-27 00:18 | 33.69198 | -83.81724 | 33977 ft | 462 kts | 220° |
| 2026-04-27 00:18 | 33.63815 | -83.85947 | 33971 ft | 463 kts | 219° |
| 2026-04-27 00:19 | 33.58417 | -83.90165 | 33973 ft | 463 kts | 219° |
| 2026-04-27 00:19 | 33.53044 | -83.94360 | 33972 ft | 464 kts | 219° |
| 2026-04-27 00:20 | 33.47640 | -83.98573 | 33971 ft | 464 kts | 219° |
| 2026-04-27 00:20 | 33.42226 | -84.02785 | 33962 ft | 464 kts | 219° |
| 2026-04-27 00:21 | 33.36816 | -84.06987 | 33983 ft | 464 kts | 219° |
| 2026-04-27 00:21 | 33.31398 | -84.11188 | 33985 ft | 464 kts | 219° |
| 2026-04-27 00:22 | 33.25977 | -84.15387 | 33991 ft | 464 kts | 219° |
| 2026-04-27 00:22 | 33.20594 | -84.19551 | 33987 ft | 464 kts | 219° |
| 2026-04-27 00:23 | 33.15171 | -84.23740 | 33982 ft | 464 kts | 219° |
| 2026-04-27 00:23 | 33.09746 | -84.27925 | 33984 ft | 464 kts | 219° |
| 2026-04-27 00:24 | 33.04315 | -84.32106 | 33993 ft | 465 kts | 219° |
| 2026-04-27 00:24 | 32.98889 | -84.36278 | 34090 ft | 462 kts | 219° |
| 2026-04-27 00:25 | 32.93483 | -84.40431 | 34093 ft | 463 kts | 219° |
| 2026-04-27 00:25 | 32.88062 | -84.44585 | 34015 ft | 465 kts | 219° |
| 2026-04-27 00:26 | 32.82657 | -84.48724 | 33982 ft | 465 kts | 219° |
| 2026-04-27 00:26 | 32.77216 | -84.52887 | 33960 ft | 465 kts | 219° |
| 2026-04-27 00:27 | 32.71753 | -84.57057 | 33475 ft | 475 kts | 219° |
| 2026-04-27 00:27 | 32.68930 | -84.59220 | 32704 ft | 490 kts | 218° |
| 2026-04-27 00:27 | 32.66025 | -84.61435 | 31947 ft | 502 kts | 218° |
| 2026-04-27 00:28 | 32.63093 | -84.63661 | 31217 ft | 511 kts | 218° |
| 2026-04-27 00:28 | 32.60113 | -84.65917 | 30513 ft | 498 kts | 217° |
| 2026-04-27 00:28 | 32.57257 | -84.68087 | 29767 ft | 479 kts | 217° |
| 2026-04-27 00:28 | 32.54495 | -84.70183 | 28931 ft | 464 kts | 217° |
| 2026-04-27 00:29 | 32.51811 | -84.72220 | 28124 ft | 452 kts | 217° |
| 2026-04-27 00:29 | 32.49188 | -84.74209 | 27334 ft | 443 kts | 217° |
| 2026-04-27 00:29 | 32.46620 | -84.76159 | 26569 ft | 435 kts | 217° |
| 2026-04-27 00:29 | 32.44088 | -84.78079 | 25823 ft | 428 kts | 217° |
| 2026-04-27 00:30 | 32.41597 | -84.79964 | 25104 ft | 423 kts | 216° |
| 2026-04-27 00:30 | 32.39135 | -84.81823 | 24470 ft | 415 kts | 216° |
| 2026-04-27 00:30 | 32.36743 | -84.83631 | 24188 ft | 401 kts | 216° |
| 2026-04-27 00:30 | 32.34443 | -84.85368 | 24040 ft | 384 kts | 216° |
| 2026-04-27 00:31 | 32.32274 | -84.87005 | 23969 ft | 367 kts | 217° |
| 2026-04-27 00:31 | 32.30145 | -84.88614 | 23932 ft | 365 kts | 217° |
| 2026-04-27 00:31 | 32.28001 | -84.90235 | 23930 ft | 379 kts | 216° |
| 2026-04-27 00:31 | 32.25726 | -84.91955 | 23935 ft | 397 kts | 216° |
| 2026-04-27 00:32 | 32.23344 | -84.93751 | 23947 ft | 415 kts | 216° |
| 2026-04-27 00:32 | 32.20892 | -84.95592 | 23948 ft | 418 kts | 216° |
| 2026-04-27 00:32 | 32.18442 | -84.97425 | 23953 ft | 418 kts | 216° |
| 2026-04-27 00:32 | 32.15991 | -84.99269 | 23947 ft | 417 kts | 216° |
| 2026-04-27 00:33 | 32.13542 | -85.01106 | 23945 ft | 417 kts | 216° |
| 2026-04-27 00:33 | 32.11091 | -85.02947 | 23964 ft | 417 kts | 216° |
| 2026-04-27 00:33 | 32.08642 | -85.04784 | 23966 ft | 417 kts | 216° |
| 2026-04-27 00:33 | 32.06224 | -85.06595 | 23964 ft | 417 kts | 216° |
| 2026-04-27 00:34 | 32.03777 | -85.08434 | 23963 ft | 417 kts | 216° |
| 2026-04-27 00:34 | 32.01327 | -85.10267 | 23963 ft | 417 kts | 216° |
| 2026-04-27 00:34 | 31.98872 | -85.12102 | 23963 ft | 417 kts | 216° |
| 2026-04-27 00:34 | 31.96422 | -85.13933 | 23961 ft | 417 kts | 216° |
| 2026-04-27 00:35 | 31.93971 | -85.15764 | 23961 ft | 417 kts | 216° |
| 2026-04-27 00:35 | 31.91522 | -85.17595 | 23963 ft | 417 kts | 216° |
| 2026-04-27 00:35 | 31.89074 | -85.19424 | 23962 ft | 417 kts | 216° |
| 2026-04-27 00:35 | 31.86623 | -85.21251 | 23963 ft | 417 kts | 216° |
| 2026-04-27 00:36 | 31.84171 | -85.23078 | 23964 ft | 417 kts | 216° |
| 2026-04-27 00:36 | 31.81719 | -85.24904 | 23963 ft | 417 kts | 216° |
| 2026-04-27 00:36 | 31.79270 | -85.26731 | 23971 ft | 417 kts | 216° |
| 2026-04-27 00:36 | 31.76853 | -85.28526 | 23965 ft | 417 kts | 216° |
| 2026-04-27 00:37 | 31.74396 | -85.30353 | 23961 ft | 417 kts | 217° |
| 2026-04-27 00:37 | 31.71946 | -85.32173 | 23961 ft | 417 kts | 217° |
| 2026-04-27 00:37 | 31.69499 | -85.33991 | 23964 ft | 417 kts | 217° |
| 2026-04-27 00:37 | 31.67047 | -85.35812 | 23963 ft | 417 kts | 217° |
| 2026-04-27 00:38 | 31.64600 | -85.37627 | 23965 ft | 416 kts | 217° |
| 2026-04-27 00:38 | 31.62148 | -85.39446 | 23963 ft | 416 kts | 217° |
| 2026-04-27 00:38 | 31.59701 | -85.41257 | 23964 ft | 416 kts | 217° |
| 2026-04-27 00:38 | 31.57255 | -85.43070 | 23975 ft | 416 kts | 217° |
| 2026-04-27 00:39 | 31.54802 | -85.44883 | 23973 ft | 416 kts | 217° |
| 2026-04-27 00:39 | 31.52356 | -85.46691 | 23977 ft | 416 kts | 217° |
| 2026-04-27 00:39 | 31.49909 | -85.48502 | 23933 ft | 417 kts | 217° |
| 2026-04-27 00:39 | 31.47412 | -85.50350 | 23458 ft | 430 kts | 217° |
| 2026-04-27 00:40 | 31.44954 | -85.52161 | 22939 ft | 417 kts | 217° |
| 2026-04-27 00:40 | 31.42510 | -85.53964 | 22368 ft | 416 kts | 217° |
| 2026-04-27 00:40 | 31.40047 | -85.55784 | 21856 ft | 422 kts | 217° |
| 2026-04-27 00:40 | 31.37539 | -85.57634 | 21358 ft | 430 kts | 216° |
| 2026-04-27 00:41 | 31.35007 | -85.59493 | 20871 ft | 423 kts | 216° |
| 2026-04-27 00:41 | 31.32540 | -85.61303 | 20385 ft | 416 kts | 216° |
| 2026-04-27 00:41 | 31.30103 | -85.63096 | 19906 ft | 412 kts | 216° |
| 2026-04-27 00:41 | 31.27692 | -85.64866 | 19444 ft | 409 kts | 215° |
| 2026-04-27 00:42 | 31.25242 | -85.66666 | 18984 ft | 421 kts | 215° |
| 2026-04-27 00:42 | 31.22751 | -85.68496 | 18536 ft | 421 kts | 214° |
| 2026-04-27 00:42 | 31.20271 | -85.70309 | 18062 ft | 420 kts | 214° |
| 2026-04-27 00:42 | 31.17826 | -85.72095 | 17554 ft | 419 kts | 214° |
| 2026-04-27 00:43 | 31.15359 | -85.73906 | 17043 ft | 419 kts | 214° |
| 2026-04-27 00:43 | 31.12892 | -85.75708 | 16535 ft | 418 kts | 214° |
| 2026-04-27 00:43 | 31.10452 | -85.77491 | 16432 ft | 407 kts | 215° |
| 2026-04-27 00:43 | 31.08096 | -85.79214 | 16456 ft | 397 kts | 215° |
| 2026-04-27 00:44 | 31.05735 | -85.80940 | 16467 ft | 403 kts | 215° |
| 2026-04-27 00:44 | 31.03367 | -85.82696 | 16470 ft | 403 kts | 218° |
| 2026-04-27 00:44 | 31.01396 | -85.84955 | 16463 ft | 397 kts | 238° |
| 2026-04-27 00:44 | 31.00043 | -85.87742 | 16480 ft | 394 kts | 247° |
| 2026-04-27 00:45 | 30.98949 | -85.90666 | 16483 ft | 393 kts | 252° |
| 2026-04-27 00:45 | 30.98190 | -85.93672 | 16489 ft | 392 kts | 259° |
| 2026-04-27 00:45 | 30.97600 | -85.96772 | 16486 ft | 392 kts | 261° |
| 2026-04-27 00:45 | 30.97030 | -85.99883 | 16492 ft | 393 kts | 261° |
| 2026-04-27 00:46 | 30.96443 | -86.02996 | 16496 ft | 394 kts | 259° |
| 2026-04-27 00:46 | 30.95799 | -86.06103 | 16496 ft | 395 kts | 259° |
| 2026-04-27 00:46 | 30.95144 | -86.09212 | 16502 ft | 396 kts | 259° |
| 2026-04-27 00:46 | 30.94486 | -86.12330 | 16506 ft | 396 kts | 259° |
| 2026-04-27 00:47 | 30.93827 | -86.15450 | 16507 ft | 396 kts | 259° |
| 2026-04-27 00:47 | 30.93172 | -86.18564 | 16512 ft | 397 kts | 259° |
| 2026-04-27 00:47 | 30.92515 | -86.21686 | 16518 ft | 397 kts | 259° |
| 2026-04-27 00:47 | 30.91854 | -86.24808 | 16519 ft | 397 kts | 259° |
| 2026-04-27 00:48 | 30.91190 | -86.27933 | 16522 ft | 397 kts | 259° |
| 2026-04-27 00:48 | 30.90540 | -86.31017 | 16532 ft | 397 kts | 259° |
| 2026-04-27 00:48 | 30.89878 | -86.34139 | 16540 ft | 398 kts | 259° |
| 2026-04-27 00:48 | 30.89212 | -86.37264 | 16539 ft | 398 kts | 259° |
| 2026-04-27 00:49 | 30.88550 | -86.40392 | 16531 ft | 398 kts | 259° |
| 2026-04-27 00:49 | 30.87884 | -86.43523 | 16514 ft | 399 kts | 259° |
| 2026-04-27 00:49 | 30.87215 | -86.46657 | 16500 ft | 399 kts | 259° |
| 2026-04-27 00:49 | 30.86546 | -86.49792 | 16485 ft | 400 kts | 259° |
| 2026-04-27 00:50 | 30.85872 | -86.52936 | 16463 ft | 400 kts | 259° |
| 2026-04-27 00:50 | 30.84526 | -86.59228 | 16254 ft | 405 kts | 259° |
| 2026-04-27 00:50 | 30.83849 | -86.62411 | 15776 ft | 417 kts | 259° |
| 2026-04-27 00:51 | 30.83166 | -86.65563 | 15287 ft | 385 kts | 259° |
| 2026-04-27 00:51 | 30.82534 | -86.68480 | 14787 ft | 360 kts | 259° |
| 2026-04-27 00:51 | 30.81928 | -86.71216 | 14307 ft | 340 kts | 259° |
| 2026-04-27 00:51 | 30.81345 | -86.73816 | 13832 ft | 325 kts | 259° |
| 2026-04-27 00:52 | 30.80787 | -86.76312 | 13307 ft | 313 kts | 259° |
| 2026-04-27 00:52 | 30.80252 | -86.78725 | 12765 ft | 304 kts | 259° |
| 2026-04-27 00:52 | 30.79739 | -86.81076 | 12247 ft | 296 kts | 259° |
| 2026-04-27 00:52 | 30.79240 | -86.83376 | 11749 ft | 293 kts | 259° |
| 2026-04-27 00:53 | 30.78743 | -86.85680 | 11269 ft | 295 kts | 259° |
| 2026-04-27 00:53 | 30.78242 | -86.88003 | 10800 ft | 297 kts | 258° |
| 2026-04-27 00:53 | 30.77738 | -86.90334 | 10331 ft | 298 kts | 259° |
| 2026-04-27 00:53 | 30.77273 | -86.92649 | 9877 ft | 298 kts | 259° |
| 2026-04-27 00:54 | 30.76805 | -86.94993 | 9369 ft | 298 kts | 259° |
| 2026-04-27 00:54 | 30.76337 | -86.97333 | 8865 ft | 297 kts | 259° |
| 2026-04-27 00:54 | 30.75868 | -86.99665 | 8368 ft | 296 kts | 259° |
| 2026-04-27 00:54 | 30.75447 | -87.01996 | 7872 ft | 293 kts | 265° |
| 2026-04-27 00:55 | 30.75466 | -87.04339 | 7385 ft | 288 kts | 275° |
| 2026-04-27 00:55 | 30.75607 | -87.06652 | 6911 ft | 286 kts | 276° |
| 2026-04-27 00:55 | 30.75780 | -87.08938 | 6447 ft | 283 kts | 277° |
| 2026-04-27 00:55 | 30.75987 | -87.11202 | 5941 ft | 280 kts | 280° |
| 2026-04-27 00:56 | 30.76352 | -87.13410 | 5459 ft | 276 kts | 284° |
| 2026-04-27 00:56 | 30.77071 | -87.15447 | 4958 ft | 271 kts | 298° |
| 2026-04-27 00:56 | 30.77963 | -87.17354 | 4469 ft | 263 kts | 300° |
| 2026-04-27 00:56 | 30.78829 | -87.19121 | 4203 ft | 246 kts | 300° |
| 2026-04-27 00:57 | 30.79660 | -87.20771 | 4073 ft | 227 kts | 301° |
| 2026-04-27 00:57 | 30.80308 | -87.22349 | 3982 ft | 208 kts | 281° |
| 2026-04-27 00:57 | 30.80411 | -87.23948 | 3965 ft | 189 kts | 273° |
| 2026-04-27 00:57 | 30.80444 | -87.25410 | 3942 ft | 173 kts | 266° |
| 2026-04-27 00:58 | 30.79992 | -87.26631 | 3776 ft | 166 kts | 223° |
| 2026-04-27 00:58 | 30.78845 | -87.27122 | 3712 ft | 204 kts | 177° |
| 2026-04-27 00:58 | 30.77347 | -87.26838 | 4301 ft | 221 kts | 168° |
| 2026-04-27 00:58 | 30.75935 | -87.26454 | 4382 ft | 203 kts | 167° |
| 2026-04-27 00:59 | 30.74546 | -87.26035 | 4188 ft | 220 kts | 166° |
| 2026-04-27 00:59 | 30.72957 | -87.25538 | 4128 ft | 244 kts | 165° |
| 2026-04-27 00:59 | 30.71374 | -87.25030 | 4081 ft | 235 kts | 165° |
| 2026-04-27 00:59 | 30.69843 | -87.24529 | 4039 ft | 220 kts | 165° |
| 2026-04-27 01:00 | 30.68451 | -87.24065 | 4024 ft | 202 kts | 165° |
| 2026-04-27 01:00 | 30.67077 | -87.23607 | 4019 ft | 206 kts | 165° |
| 2026-04-27 01:00 | 30.65739 | -87.23179 | 3902 ft | 189 kts | 168° |
| 2026-04-27 01:00 | 30.64573 | -87.22885 | 3987 ft | 162 kts | 171° |
| 2026-04-27 01:01 | 30.63482 | -87.22690 | 3796 ft | 158 kts | 174° |
| 2026-04-27 01:01 | 30.62382 | -87.22516 | 3572 ft | 162 kts | 174° |
| 2026-04-27 01:01 | 30.61266 | -87.22340 | 3354 ft | 162 kts | 175° |
| 2026-04-27 01:01 | 30.60146 | -87.22159 | 3097 ft | 163 kts | 173° |
| 2026-04-27 01:02 | 30.59031 | -87.21951 | 2815 ft | 158 kts | 171° |
| 2026-04-27 01:02 | 30.57970 | -87.21717 | 2504 ft | 161 kts | 171° |
| 2026-04-27 01:02 | 30.56839 | -87.21464 | 2299 ft | 165 kts | 170° |
| 2026-04-27 01:02 | 30.55753 | -87.21163 | 2250 ft | 161 kts | 167° |
| 2026-04-27 01:03 | 30.54633 | -87.20836 | 2064 ft | 172 kts | 168° |
| 2026-04-27 01:03 | 30.53433 | -87.20507 | 1715 ft | 171 kts | 168° |
| 2026-04-27 01:03 | 30.52350 | -87.20188 | 1289 ft | 155 kts | 168° |
| 2026-04-27 01:03 | 30.51313 | -87.19895 | 932 ft | 155 kts | 168° |
| 2026-04-27 01:04 | 30.50263 | -87.19596 | 647 ft | 154 kts | 168° |
| 2026-04-27 01:04 | 30.49247 | -87.19329 | 353 ft | 152 kts | 168° |
| 2026-04-27 01:04 | 30.48204 | -87.19045 | 165 ft | 147 kts | 168° |
| 2026-04-27 01:04 | 30.47419 | -87.18839 | 110 ft | 78 kts | 166° |
| 2026-04-27 01:05 | 30.47041 | -87.18735 | 112 ft | 42 kts | 168° |
| 2026-04-27 01:05 | 30.46774 | -87.18669 | 109 ft | 31 kts | 166° |
| 2026-04-27 01:05 | 30.46679 | -87.18716 | 110 ft | 11 kts | 246° |
| 2026-04-27 01:05 | 30.46665 | -87.18773 | 111 ft | 0 kts | 285° |
| 2026-04-27 01:06 | 30.46690 | -87.18799 | 111 ft | 8 kts | 341° |
| 2026-04-27 01:06 | 30.46743 | -87.18812 | 111 ft | 8 kts | 348° |
| 2026-04-27 01:06 | 30.46808 | -87.18828 | 111 ft | 11 kts | 348° |
| 2026-04-27 01:06 | 30.46891 | -87.18849 | 109 ft | 14 kts | 348° |
| 2026-04-27 01:07 | 30.46995 | -87.18875 | 108 ft | 16 kts | 345° |
| 2026-04-27 01:07 | 30.47108 | -87.18907 | 107 ft | 17 kts | 346° |
| 2026-04-27 01:07 | 30.47226 | -87.18943 | 109 ft | 19 kts | 346° |
| 2026-04-27 01:07 | 30.47357 | -87.18977 | 107 ft | 11 kts | 346° |
| 2026-04-27 01:08 | 30.47410 | -87.19036 | 107 ft | 13 kts | 306° |
| 2026-04-27 01:08 | 30.47483 | -87.19070 | 111 ft | 11 kts | 352° |
| 2026-04-27 01:08 | 30.47555 | -87.19084 | 110 ft | 9 kts | 335° |
| 2026-04-27 01:08 | 30.47572 | -87.19145 | 112 ft | 9 kts | 256° |
| 2026-04-27 01:09 | 30.47566 | -87.19166 | 112 ft | 3 kts | 250° |
| 2026-04-27 01:09 | 30.47564 | -87.19173 | 111 ft | 0 kts | 249° |
| 2026-04-27 01:09 | 30.47563 | -87.19175 | 111 ft | 0 kts | 248° |